Huachuca City, AZ (85616)

05:10 PM MST del 24 Luglio 2016 (GMT -0700)
SE AZ RV Rentals ~ Hwy 82 Whetstone AZ | | Change Station

Alt. 4367 ft 31.69 °N, 110.34 °W | Updated 5 minutes ago

Clear
Sereno
94.8 °F
Sembra 93 °F
N
11.4
Vento Variabile Vento da Ovest

Oggi
Massima -- | Minima -- °F
--% Possibilità di precip.
Ieri
Massima -- | Minima -- °F
Precip. -- in
Pressione 29.82 in
Visibilità 10.0 miglia
Nuvole Sereno
Indice di calore 93 °F
Punto di rugiada 56 °F
Umidità 27%
Piovosità 0.00 in
Spessore del manto nevoso Non disponibile.
5:32 AM 7:22 PM
Gobba a levante, 72% visible
METAR KFHU 242358Z AUTO 31016G19KT 10SM CLR 34/12 A3007 RMK AO2 SLP097 T03370121 10346 20308 57015
Pressione 29.82 in
Visibilità 10.0 miglia
Nuvole Sereno
Indice di calore 93 °F
Punto di rugiada 56 °F
Umidità 27%
Piovosità 0.00 in
Spessore del manto nevoso Non disponibile.
5:32 AM 7:22 PM
Gobba a levante, 72% visible
METAR KFHU 242358Z AUTO 31016G19KT 10SM CLR 34/12 A3007 RMK AO2 SLP097 T03370121 10346 20308 57015

10-Day Weather Forecast

Almanac

Astronomia

Jul. 24, 2016 Alba Tramonto
Ora attuale
Crepuscolo civile
Crepuscolo nautico
Crepuscolo astronomico
Luna
Estensione della luce visibile
Lunghezza del giorno
Tomorrow will be .
, % of the Moon is Illuminated

Gli estremi di oggi

State Highs State Lows

Community

WunderPhotos

Upload Photos

1,927,211 foto caricate!

WunderBlog® & News

Nearby

Qualità dell'aria

  Qualità dell'aria Indice AQ Inquinante
Not available.

Profondità neve

Stazione Profondità Altitudine

Attività sismica

Città  Distanza Mag. Data & Ora
Minimo Magnitudo Mostrato è 2.5.

Temperature delle acque costiere

Località Temperatura

Stations

Stazioni meteo nelle vicinanze

Ubicazione della stazione Temp. Raffreddamento del vento Punto di rugiada Umidità Vento Precip. Alt. Aggiornato Tipo
                   

Watches & Warnings

There are currently no watches in effect.